sensor_id;sensor_type;location;lat;lon;timestamp;P1;durP1;ratioP1;P2;durP2;ratioP2
53525;SDS011;40551;50.478;19.378;2023-08-06T00:02:30;30.10;;;19.10;;
53525;SDS011;40551;50.478;19.378;2023-08-06T00:05:03;21.40;;;17.20;;
53525;SDS011;40551;50.478;19.378;2023-08-06T00:07:35;26.10;;;18.30;;
53525;SDS011;40551;50.478;19.378;2023-08-06T00:10:07;20.50;;;14.50;;
53525;SDS011;40551;50.478;19.378;2023-08-06T00:12:39;20.70;;;13.90;;
53525;SDS011;40551;50.478;19.378;2023-08-06T00:15:11;16.00;;;12.60;;
53525;SDS011;40551;50.478;19.378;2023-08-06T00:17:43;12.70;;;11.00;;
53525;SDS011;40551;50.478;19.378;2023-08-06T00:20:14;11.60;;;10.20;;
53525;SDS011;40551;50.478;19.378;2023-08-06T00:22:46;13.40;;;9.20;;
53525;SDS011;40551;50.478;19.378;2023-08-06T00:25:18;9.40;;;7.60;;
53525;SDS011;40551;50.478;19.378;2023-08-06T00:27:49;9.30;;;8.30;;
53525;SDS011;40551;50.478;19.378;2023-08-06T00:30:21;8.90;;;7.40;;
53525;SDS011;40551;50.478;19.378;2023-08-06T00:32:52;10.30;;;8.00;;
53525;SDS011;40551;50.478;19.378;2023-08-06T00:35:24;10.50;;;8.00;;
53525;SDS011;40551;50.478;19.378;2023-08-06T00:37:56;9.70;;;8.30;;
53525;SDS011;40551;50.478;19.378;2023-08-06T00:40:28;9.00;;;5.50;;
53525;SDS011;40551;50.478;19.378;2023-08-06T00:43:00;10.00;;;7.80;;
53525;SDS011;40551;50.478;19.378;2023-08-06T00:45:32;8.90;;;7.40;;
53525;SDS011;40551;50.478;19.378;2023-08-06T00:48:06;9.00;;;7.00;;
53525;SDS011;40551;50.478;19.378;2023-08-06T00:50:38;9.50;;;6.50;;
53525;SDS011;40551;50.478;19.378;2023-08-06T00:53:09;7.90;;;6.20;;
53525;SDS011;40551;50.478;19.378;2023-08-06T00:55:42;9.40;;;6.30;;
53525;SDS011;40551;50.478;19.378;2023-08-06T00:58:16;9.50;;;5.90;;
53525;SDS011;40551;50.478;19.378;2023-08-06T01:00:48;11.20;;;5.80;;
53525;SDS011;40551;50.478;19.378;2023-08-06T01:03:20;9.10;;;5.70;;
53525;SDS011;40551;50.478;19.378;2023-08-06T01:05:52;7.50;;;5.30;;
53525;SDS011;40551;50.478;19.378;2023-08-06T01:08:28;7.80;;;5.50;;
53525;SDS011;40551;50.478;19.378;2023-08-06T01:11:11;6.70;;;4.90;;
53525;SDS011;40551;50.478;19.378;2023-08-06T01:13:53;8.70;;;5.80;;
53525;SDS011;40551;50.478;19.378;2023-08-06T01:16:29;7.00;;;5.50;;
53525;SDS011;40551;50.478;19.378;2023-08-06T01:19:03;7.10;;;5.50;;
53525;SDS011;40551;50.478;19.378;2023-08-06T01:21:35;7.50;;;5.30;;
53525;SDS011;40551;50.478;19.378;2023-08-06T01:24:06;9.40;;;4.70;;
53525;SDS011;40551;50.478;19.378;2023-08-06T01:26:40;10.00;;;5.30;;
53525;SDS011;40551;50.478;19.378;2023-08-06T01:29:17;8.40;;;5.00;;
53525;SDS011;40551;50.478;19.378;2023-08-06T01:31:55;14.10;;;5.00;;
53525;SDS011;40551;50.478;19.378;2023-08-06T01:34:28;8.80;;;5.00;;
53525;SDS011;40551;50.478;19.378;2023-08-06T01:37:04;18.90;;;6.00;;
53525;SDS011;40551;50.478;19.378;2023-08-06T01:39:36;9.90;;;4.60;;
53525;SDS011;40551;50.478;19.378;2023-08-06T01:42:09;12.00;;;4.90;;
53525;SDS011;40551;50.478;19.378;2023-08-06T01:44:41;7.20;;;5.20;;
53525;SDS011;40551;50.478;19.378;2023-08-06T01:47:13;7.80;;;5.50;;
53525;SDS011;40551;50.478;19.378;2023-08-06T01:49:44;7.30;;;4.90;;
53525;SDS011;40551;50.478;19.378;2023-08-06T01:52:16;9.60;;;5.50;;
53525;SDS011;40551;50.478;19.378;2023-08-06T01:54:48;9.10;;;5.70;;
53525;SDS011;40551;50.478;19.378;2023-08-06T01:57:19;8.90;;;5.50;;
53525;SDS011;40551;50.478;19.378;2023-08-06T01:59:51;11.50;;;5.50;;
53525;SDS011;40551;50.478;19.378;2023-08-06T02:02:23;8.10;;;5.40;;
53525;SDS011;40551;50.478;19.378;2023-08-06T02:04:55;10.10;;;5.20;;
53525;SDS011;40551;50.478;19.378;2023-08-06T02:07:27;8.30;;;5.90;;
53525;SDS011;40551;50.478;19.378;2023-08-06T02:09:59;13.00;;;6.20;;
53525;SDS011;40551;50.478;19.378;2023-08-06T02:12:30;7.90;;;5.50;;
53525;SDS011;40551;50.478;19.378;2023-08-06T02:15:02;8.90;;;5.60;;
53525;SDS011;40551;50.478;19.378;2023-08-06T02:17:35;9.40;;;5.60;;
53525;SDS011;40551;50.478;19.378;2023-08-06T02:20:08;17.80;;;5.70;;
53525;SDS011;40551;50.478;19.378;2023-08-06T02:22:41;12.90;;;5.30;;
53525;SDS011;40551;50.478;19.378;2023-08-06T02:25:12;11.00;;;5.10;;
53525;SDS011;40551;50.478;19.378;2023-08-06T02:27:44;9.30;;;4.50;;
53525;SDS011;40551;50.478;19.378;2023-08-06T02:30:16;7.90;;;5.20;;
53525;SDS011;40551;50.478;19.378;2023-08-06T02:32:48;7.60;;;5.90;;
53525;SDS011;40551;50.478;19.378;2023-08-06T02:35:20;10.30;;;5.80;;
53525;SDS011;40551;50.478;19.378;2023-08-06T02:37:52;11.50;;;5.90;;
53525;SDS011;40551;50.478;19.378;2023-08-06T02:40:24;7.20;;;5.50;;
53525;SDS011;40551;50.478;19.378;2023-08-06T02:42:55;8.40;;;5.50;;
53525;SDS011;40551;50.478;19.378;2023-08-06T02:45:27;10.70;;;5.40;;
53525;SDS011;40551;50.478;19.378;2023-08-06T02:48:00;8.20;;;5.50;;
53525;SDS011;40551;50.478;19.378;2023-08-06T02:50:35;10.50;;;5.30;;
53525;SDS011;40551;50.478;19.378;2023-08-06T02:53:09;8.90;;;5.80;;
53525;SDS011;40551;50.478;19.378;2023-08-06T02:55:44;8.20;;;6.20;;
53525;SDS011;40551;50.478;19.378;2023-08-06T02:58:19;8.30;;;6.10;;
53525;SDS011;40551;50.478;19.378;2023-08-06T03:01:02;11.50;;;6.40;;
53525;SDS011;40551;50.478;19.378;2023-08-06T03:03:56;15.20;;;7.10;;
53525;SDS011;40551;50.478;19.378;2023-08-06T03:06:33;8.20;;;6.40;;
53525;SDS011;40551;50.478;19.378;2023-08-06T03:09:05;10.70;;;8.30;;
53525;SDS011;40551;50.478;19.378;2023-08-06T03:11:36;11.70;;;7.80;;
53525;SDS011;40551;50.478;19.378;2023-08-06T03:14:11;11.90;;;8.40;;
53525;SDS011;40551;50.478;19.378;2023-08-06T03:16:43;16.40;;;7.60;;
53525;SDS011;40551;50.478;19.378;2023-08-06T03:19:16;11.60;;;6.70;;
53525;SDS011;40551;50.478;19.378;2023-08-06T03:21:48;26.50;;;8.00;;
53525;SDS011;40551;50.478;19.378;2023-08-06T03:24:20;16.10;;;7.40;;
53525;SDS011;40551;50.478;19.378;2023-08-06T03:26:53;18.10;;;9.30;;
53525;SDS011;40551;50.478;19.378;2023-08-06T03:29:25;26.60;;;9.50;;
53525;SDS011;40551;50.478;19.378;2023-08-06T03:31:59;9.90;;;8.80;;
53525;SDS011;40551;50.478;19.378;2023-08-06T03:34:30;16.50;;;9.80;;
53525;SDS011;40551;50.478;19.378;2023-08-06T03:37:03;26.30;;;8.70;;
53525;SDS011;40551;50.478;19.378;2023-08-06T03:39:35;11.20;;;6.20;;
53525;SDS011;40551;50.478;19.378;2023-08-06T03:42:08;12.90;;;5.50;;
53525;SDS011;40551;50.478;19.378;2023-08-06T03:44:40;11.70;;;7.30;;
53525;SDS011;40551;50.478;19.378;2023-08-06T03:47:12;9.80;;;6.10;;
53525;SDS011;40551;50.478;19.378;2023-08-06T03:49:44;13.70;;;6.60;;
53525;SDS011;40551;50.478;19.378;2023-08-06T03:52:16;17.10;;;7.20;;
53525;SDS011;40551;50.478;19.378;2023-08-06T03:54:49;11.90;;;7.50;;
53525;SDS011;40551;50.478;19.378;2023-08-06T03:57:20;52.70;;;10.40;;
53525;SDS011;40551;50.478;19.378;2023-08-06T03:59:52;57.50;;;10.00;;
53525;SDS011;40551;50.478;19.378;2023-08-06T04:02:25;15.60;;;8.40;;
53525;SDS011;40551;50.478;19.378;2023-08-06T04:04:57;13.30;;;9.30;;
53525;SDS011;40551;50.478;19.378;2023-08-06T04:07:29;19.00;;;8.60;;
53525;SDS011;40551;50.478;19.378;2023-08-06T04:10:01;12.10;;;8.80;;
53525;SDS011;40551;50.478;19.378;2023-08-06T04:12:34;40.30;;;8.80;;
53525;SDS011;40551;50.478;19.378;2023-08-06T04:15:08;23.00;;;8.40;;
53525;SDS011;40551;50.478;19.378;2023-08-06T04:17:40;9.90;;;8.60;;
53525;SDS011;40551;50.478;19.378;2023-08-06T04:20:12;9.30;;;8.30;;
53525;SDS011;40551;50.478;19.378;2023-08-06T04:22:44;22.00;;;8.20;;
53525;SDS011;40551;50.478;19.378;2023-08-06T04:25:15;11.00;;;9.10;;
53525;SDS011;40551;50.478;19.378;2023-08-06T04:27:49;50.40;;;10.70;;
53525;SDS011;40551;50.478;19.378;2023-08-06T04:30:21;24.00;;;9.30;;
53525;SDS011;40551;50.478;19.378;2023-08-06T04:32:53;44.50;;;9.70;;
53525;SDS011;40551;50.478;19.378;2023-08-06T04:35:27;30.60;;;9.00;;
53525;SDS011;40551;50.478;19.378;2023-08-06T04:37:58;19.10;;;9.10;;
53525;SDS011;40551;50.478;19.378;2023-08-06T04:40:31;42.80;;;10.40;;
53525;SDS011;40551;50.478;19.378;2023-08-06T04:43:04;29.80;;;9.40;;
53525;SDS011;40551;50.478;19.378;2023-08-06T04:45:37;14.00;;;10.00;;
53525;SDS011;40551;50.478;19.378;2023-08-06T04:48:15;15.40;;;9.50;;
53525;SDS011;40551;50.478;19.378;2023-08-06T04:50:47;27.30;;;10.00;;
53525;SDS011;40551;50.478;19.378;2023-08-06T04:53:19;11.80;;;10.60;;
53525;SDS011;40551;50.478;19.378;2023-08-06T04:55:51;12.00;;;10.60;;
53525;SDS011;40551;50.478;19.378;2023-08-06T04:58:23;13.40;;;10.90;;
53525;SDS011;40551;50.478;19.378;2023-08-06T05:00:55;14.40;;;11.10;;
53525;SDS011;40551;50.478;19.378;2023-08-06T05:03:28;13.40;;;10.70;;
53525;SDS011;40551;50.478;19.378;2023-08-06T05:05:59;30.90;;;11.70;;
53525;SDS011;40551;50.478;19.378;2023-08-06T05:08:31;15.60;;;11.30;;
53525;SDS011;40551;50.478;19.378;2023-08-06T05:11:02;16.40;;;11.20;;
53525;SDS011;40551;50.478;19.378;2023-08-06T05:13:34;15.70;;;11.40;;
53525;SDS011;40551;50.478;19.378;2023-08-06T05:16:06;15.30;;;12.50;;
53525;SDS011;40551;50.478;19.378;2023-08-06T05:18:37;14.20;;;12.20;;
53525;SDS011;40551;50.478;19.378;2023-08-06T05:21:10;16.20;;;12.50;;
53525;SDS011;40551;50.478;19.378;2023-08-06T05:23:42;12.90;;;11.50;;
53525;SDS011;40551;50.478;19.378;2023-08-06T05:26:13;14.70;;;12.30;;
53525;SDS011;40551;50.478;19.378;2023-08-06T05:28:47;19.30;;;13.70;;
53525;SDS011;40551;50.478;19.378;2023-08-06T05:31:19;19.00;;;12.90;;
53525;SDS011;40551;50.478;19.378;2023-08-06T05:33:50;16.90;;;14.20;;
53525;SDS011;40551;50.478;19.378;2023-08-06T05:36:22;18.00;;;15.30;;
53525;SDS011;40551;50.478;19.378;2023-08-06T05:38:57;19.80;;;15.30;;
53525;SDS011;40551;50.478;19.378;2023-08-06T05:41:29;15.40;;;13.70;;
53525;SDS011;40551;50.478;19.378;2023-08-06T05:44:01;20.70;;;14.50;;
53525;SDS011;40551;50.478;19.378;2023-08-06T05:46:33;17.70;;;14.20;;
53525;SDS011;40551;50.478;19.378;2023-08-06T05:49:04;15.60;;;13.20;;
53525;SDS011;40551;50.478;19.378;2023-08-06T05:51:36;15.60;;;12.70;;
53525;SDS011;40551;50.478;19.378;2023-08-06T05:54:07;20.90;;;14.70;;
53525;SDS011;40551;50.478;19.378;2023-08-06T05:56:39;16.60;;;13.70;;
53525;SDS011;40551;50.478;19.378;2023-08-06T05:59:11;18.60;;;13.90;;
53525;SDS011;40551;50.478;19.378;2023-08-06T06:01:42;17.70;;;15.10;;
53525;SDS011;40551;50.478;19.378;2023-08-06T06:04:14;18.50;;;15.10;;
53525;SDS011;40551;50.478;19.378;2023-08-06T06:06:46;16.50;;;13.80;;
53525;SDS011;40551;50.478;19.378;2023-08-06T06:09:18;19.30;;;14.60;;
53525;SDS011;40551;50.478;19.378;2023-08-06T06:11:49;17.70;;;15.80;;
53525;SDS011;40551;50.478;19.378;2023-08-06T06:14:21;26.60;;;24.10;;
53525;SDS011;40551;50.478;19.378;2023-08-06T06:16:53;49.30;;;44.30;;
53525;SDS011;40551;50.478;19.378;2023-08-06T06:19:25;26.40;;;22.50;;
53525;SDS011;40551;50.478;19.378;2023-08-06T06:21:57;19.30;;;17.30;;
53525;SDS011;40551;50.478;19.378;2023-08-06T06:24:29;18.60;;;14.80;;
53525;SDS011;40551;50.478;19.378;2023-08-06T06:27:00;19.10;;;16.50;;
53525;SDS011;40551;50.478;19.378;2023-08-06T06:29:32;19.90;;;17.00;;
53525;SDS011;40551;50.478;19.378;2023-08-06T06:32:04;24.80;;;22.30;;
53525;SDS011;40551;50.478;19.378;2023-08-06T06:34:36;20.20;;;18.10;;
53525;SDS011;40551;50.478;19.378;2023-08-06T06:37:08;20.40;;;18.30;;
53525;SDS011;40551;50.478;19.378;2023-08-06T06:39:40;19.40;;;17.30;;
53525;SDS011;40551;50.478;19.378;2023-08-06T06:42:12;18.40;;;16.10;;
53525;SDS011;40551;50.478;19.378;2023-08-06T06:44:46;19.20;;;15.40;;
53525;SDS011;40551;50.478;19.378;2023-08-06T06:47:17;17.80;;;15.80;;
53525;SDS011;40551;50.478;19.378;2023-08-06T06:49:49;18.60;;;16.10;;
53525;SDS011;40551;50.478;19.378;2023-08-06T06:52:21;19.90;;;17.80;;
53525;SDS011;40551;50.478;19.378;2023-08-06T06:54:53;21.10;;;18.00;;
53525;SDS011;40551;50.478;19.378;2023-08-06T06:57:25;23.30;;;20.80;;
53525;SDS011;40551;50.478;19.378;2023-08-06T06:59:56;23.90;;;20.60;;
53525;SDS011;40551;50.478;19.378;2023-08-06T07:02:28;20.60;;;18.40;;
53525;SDS011;40551;50.478;19.378;2023-08-06T07:05:00;20.70;;;17.60;;
53525;SDS011;40551;50.478;19.378;2023-08-06T07:07:31;17.90;;;15.60;;
53525;SDS011;40551;50.478;19.378;2023-08-06T07:10:04;21.40;;;17.10;;
53525;SDS011;40551;50.478;19.378;2023-08-06T07:12:37;19.30;;;15.60;;
53525;SDS011;40551;50.478;19.378;2023-08-06T07:15:10;20.00;;;16.10;;
53525;SDS011;40551;50.478;19.378;2023-08-06T07:17:42;16.70;;;14.00;;
53525;SDS011;40551;50.478;19.378;2023-08-06T07:20:14;17.70;;;15.30;;
53525;SDS011;40551;50.478;19.378;2023-08-06T07:22:46;16.00;;;14.40;;
53525;SDS011;40551;50.478;19.378;2023-08-06T07:25:19;16.20;;;13.40;;
53525;SDS011;40551;50.478;19.378;2023-08-06T07:27:50;16.20;;;14.50;;
53525;SDS011;40551;50.478;19.378;2023-08-06T07:30:22;17.00;;;12.90;;
53525;SDS011;40551;50.478;19.378;2023-08-06T07:32:53;14.30;;;12.90;;
53525;SDS011;40551;50.478;19.378;2023-08-06T07:35:25;13.60;;;12.20;;
53525;SDS011;40551;50.478;19.378;2023-08-06T07:38:00;13.50;;;12.10;;
53525;SDS011;40551;50.478;19.378;2023-08-06T07:40:32;13.10;;;11.70;;
53525;SDS011;40551;50.478;19.378;2023-08-06T07:43:05;14.20;;;12.60;;
53525;SDS011;40551;50.478;19.378;2023-08-06T07:45:37;11.30;;;10.20;;
53525;SDS011;40551;50.478;19.378;2023-08-06T07:48:09;12.00;;;10.10;;
53525;SDS011;40551;50.478;19.378;2023-08-06T07:50:41;10.10;;;9.10;;
53525;SDS011;40551;50.478;19.378;2023-08-06T07:53:19;9.80;;;8.80;;
53525;SDS011;40551;50.478;19.378;2023-08-06T07:55:51;9.80;;;8.60;;
53525;SDS011;40551;50.478;19.378;2023-08-06T07:58:24;10.30;;;8.40;;
53525;SDS011;40551;50.478;19.378;2023-08-06T08:00:56;10.00;;;8.50;;
53525;SDS011;40551;50.478;19.378;2023-08-06T08:03:30;12.80;;;6.50;;
53525;SDS011;40551;50.478;19.378;2023-08-06T08:06:02;6.00;;;3.40;;
53525;SDS011;40551;50.478;19.378;2023-08-06T08:08:34;14.90;;;3.00;;
53525;SDS011;40551;50.478;19.378;2023-08-06T08:11:07;5.10;;;1.70;;
53525;SDS011;40551;50.478;19.378;2023-08-06T08:13:39;6.30;;;1.50;;
53525;SDS011;40551;50.478;19.378;2023-08-06T08:16:11;5.50;;;1.30;;
53525;SDS011;40551;50.478;19.378;2023-08-06T08:18:42;5.30;;;1.30;;
53525;SDS011;40551;50.478;19.378;2023-08-06T08:21:14;5.90;;;1.20;;
53525;SDS011;40551;50.478;19.378;2023-08-06T08:23:46;5.70;;;1.60;;
53525;SDS011;40551;50.478;19.378;2023-08-06T08:26:18;3.50;;;1.10;;
53525;SDS011;40551;50.478;19.378;2023-08-06T08:28:49;2.40;;;1.10;;
53525;SDS011;40551;50.478;19.378;2023-08-06T08:31:21;5.60;;;1.00;;
53525;SDS011;40551;50.478;19.378;2023-08-06T08:33:53;12.40;;;1.70;;
53525;SDS011;40551;50.478;19.378;2023-08-06T08:36:28;20.40;;;2.00;;
53525;SDS011;40551;50.478;19.378;2023-08-06T08:38:59;9.40;;;1.70;;
53525;SDS011;40551;50.478;19.378;2023-08-06T08:41:31;6.80;;;1.60;;
53525;SDS011;40551;50.478;19.378;2023-08-06T08:44:03;5.30;;;1.30;;
53525;SDS011;40551;50.478;19.378;2023-08-06T08:46:38;2.60;;;1.10;;
53525;SDS011;40551;50.478;19.378;2023-08-06T08:49:11;2.70;;;1.10;;
53525;SDS011;40551;50.478;19.378;2023-08-06T08:51:43;3.80;;;1.20;;
53525;SDS011;40551;50.478;19.378;2023-08-06T08:54:18;2.20;;;1.10;;
53525;SDS011;40551;50.478;19.378;2023-08-06T08:56:51;3.10;;;1.00;;
53525;SDS011;40551;50.478;19.378;2023-08-06T08:59:24;6.40;;;1.20;;
53525;SDS011;40551;50.478;19.378;2023-08-06T09:01:55;3.30;;;1.00;;
53525;SDS011;40551;50.478;19.378;2023-08-06T09:04:30;4.90;;;1.10;;
53525;SDS011;40551;50.478;19.378;2023-08-06T09:07:04;3.60;;;1.10;;
53525;SDS011;40551;50.478;19.378;2023-08-06T09:09:38;3.20;;;1.00;;
53525;SDS011;40551;50.478;19.378;2023-08-06T09:12:15;2.20;;;1.20;;
53525;SDS011;40551;50.478;19.378;2023-08-06T09:14:47;2.20;;;1.00;;
53525;SDS011;40551;50.478;19.378;2023-08-06T09:17:19;3.10;;;1.10;;
53525;SDS011;40551;50.478;19.378;2023-08-06T09:19:51;4.70;;;1.10;;
53525;SDS011;40551;50.478;19.378;2023-08-06T09:22:22;5.30;;;1.10;;
53525;SDS011;40551;50.478;19.378;2023-08-06T09:24:55;4.30;;;1.00;;
53525;SDS011;40551;50.478;19.378;2023-08-06T09:27:27;3.30;;;1.00;;
53525;SDS011;40551;50.478;19.378;2023-08-06T09:29:59;4.90;;;1.00;;
53525;SDS011;40551;50.478;19.378;2023-08-06T09:32:43;3.40;;;1.10;;
53525;SDS011;40551;50.478;19.378;2023-08-06T09:35:17;2.80;;;1.20;;
53525;SDS011;40551;50.478;19.378;2023-08-06T09:37:49;2.80;;;1.20;;
53525;SDS011;40551;50.478;19.378;2023-08-06T09:40:27;3.40;;;1.10;;
53525;SDS011;40551;50.478;19.378;2023-08-06T09:42:59;3.00;;;1.20;;
53525;SDS011;40551;50.478;19.378;2023-08-06T09:45:35;6.50;;;1.30;;
53525;SDS011;40551;50.478;19.378;2023-08-06T09:48:08;3.90;;;1.40;;
53525;SDS011;40551;50.478;19.378;2023-08-06T09:50:41;3.30;;;1.40;;
53525;SDS011;40551;50.478;19.378;2023-08-06T09:53:12;5.00;;;1.50;;
53525;SDS011;40551;50.478;19.378;2023-08-06T09:55:44;3.70;;;1.30;;
53525;SDS011;40551;50.478;19.378;2023-08-06T09:58:17;5.40;;;1.50;;
53525;SDS011;40551;50.478;19.378;2023-08-06T10:00:51;5.10;;;1.50;;
53525;SDS011;40551;50.478;19.378;2023-08-06T10:03:23;3.90;;;1.20;;
53525;SDS011;40551;50.478;19.378;2023-08-06T10:05:56;2.20;;;1.20;;
53525;SDS011;40551;50.478;19.378;2023-08-06T10:08:28;4.00;;;1.40;;
53525;SDS011;40551;50.478;19.378;2023-08-06T10:11:00;4.00;;;1.40;;
53525;SDS011;40551;50.478;19.378;2023-08-06T10:13:34;8.20;;;1.40;;
53525;SDS011;40551;50.478;19.378;2023-08-06T10:16:06;2.70;;;1.30;;
53525;SDS011;40551;50.478;19.378;2023-08-06T10:18:38;3.50;;;1.20;;
53525;SDS011;40551;50.478;19.378;2023-08-06T10:21:11;3.80;;;1.50;;
53525;SDS011;40551;50.478;19.378;2023-08-06T10:23:48;3.20;;;1.20;;
53525;SDS011;40551;50.478;19.378;2023-08-06T10:26:26;4.40;;;1.30;;
53525;SDS011;40551;50.478;19.378;2023-08-06T10:28:58;6.20;;;1.20;;
53525;SDS011;40551;50.478;19.378;2023-08-06T10:37:25;2.10;;;1.20;;
53525;SDS011;40551;50.478;19.378;2023-08-06T10:40:07;2.80;;;1.30;;
53525;SDS011;40551;50.478;19.378;2023-08-06T10:42:39;3.80;;;1.50;;
53525;SDS011;40551;50.478;19.378;2023-08-06T10:45:18;4.10;;;1.40;;
53525;SDS011;40551;50.478;19.378;2023-08-06T10:47:53;5.70;;;1.30;;
53525;SDS011;40551;50.478;19.378;2023-08-06T10:50:25;3.10;;;1.10;;
53525;SDS011;40551;50.478;19.378;2023-08-06T10:52:57;1.40;;;0.90;;
53525;SDS011;40551;50.478;19.378;2023-08-06T10:55:33;2.20;;;0.90;;
53525;SDS011;40551;50.478;19.378;2023-08-06T10:58:07;2.00;;;1.00;;
53525;SDS011;40551;50.478;19.378;2023-08-06T11:00:39;2.80;;;1.20;;
53525;SDS011;40551;50.478;19.378;2023-08-06T11:03:11;2.80;;;0.90;;
53525;SDS011;40551;50.478;19.378;2023-08-06T11:05:43;7.60;;;1.10;;
53525;SDS011;40551;50.478;19.378;2023-08-06T11:08:24;5.30;;;1.40;;
53525;SDS011;40551;50.478;19.378;2023-08-06T11:10:57;3.60;;;0.90;;
53525;SDS011;40551;50.478;19.378;2023-08-06T11:13:39;2.30;;;1.00;;
53525;SDS011;40551;50.478;19.378;2023-08-06T11:16:11;2.90;;;1.00;;
53525;SDS011;40551;50.478;19.378;2023-08-06T11:18:44;3.30;;;1.20;;
53525;SDS011;40551;50.478;19.378;2023-08-06T11:21:19;3.50;;;1.20;;
53525;SDS011;40551;50.478;19.378;2023-08-06T11:23:53;3.90;;;1.10;;
53525;SDS011;40551;50.478;19.378;2023-08-06T11:26:25;2.40;;;0.90;;
53525;SDS011;40551;50.478;19.378;2023-08-06T11:28:57;2.90;;;1.10;;
53525;SDS011;40551;50.478;19.378;2023-08-06T11:31:29;6.70;;;1.10;;
53525;SDS011;40551;50.478;19.378;2023-08-06T11:34:00;1.30;;;0.70;;
53525;SDS011;40551;50.478;19.378;2023-08-06T11:36:33;2.50;;;0.90;;
53525;SDS011;40551;50.478;19.378;2023-08-06T11:39:10;4.70;;;0.90;;
53525;SDS011;40551;50.478;19.378;2023-08-06T11:41:42;2.00;;;0.90;;
53525;SDS011;40551;50.478;19.378;2023-08-06T11:44:14;1.70;;;0.90;;
53525;SDS011;40551;50.478;19.378;2023-08-06T11:46:52;1.70;;;0.90;;
53525;SDS011;40551;50.478;19.378;2023-08-06T11:49:38;1.70;;;1.00;;
53525;SDS011;40551;50.478;19.378;2023-08-06T11:52:17;1.50;;;0.90;;
53525;SDS011;40551;50.478;19.378;2023-08-06T11:55:00;4.50;;;1.10;;
53525;SDS011;40551;50.478;19.378;2023-08-06T11:57:35;2.00;;;1.10;;
53525;SDS011;40551;50.478;19.378;2023-08-06T12:00:10;3.10;;;1.20;;
53525;SDS011;40551;50.478;19.378;2023-08-06T12:02:44;3.60;;;1.60;;
53525;SDS011;40551;50.478;19.378;2023-08-06T12:05:18;3.10;;;1.20;;
53525;SDS011;40551;50.478;19.378;2023-08-06T12:07:53;4.40;;;1.40;;
53525;SDS011;40551;50.478;19.378;2023-08-06T12:10:27;2.90;;;1.20;;
53525;SDS011;40551;50.478;19.378;2023-08-06T12:13:00;3.00;;;1.30;;
53525;SDS011;40551;50.478;19.378;2023-08-06T12:15:32;2.60;;;1.10;;
53525;SDS011;40551;50.478;19.378;2023-08-06T12:18:04;2.10;;;1.10;;
53525;SDS011;40551;50.478;19.378;2023-08-06T12:20:37;1.10;;;0.90;;
53525;SDS011;40551;50.478;19.378;2023-08-06T12:23:11;5.90;;;1.30;;
53525;SDS011;40551;50.478;19.378;2023-08-06T12:25:44;3.20;;;1.20;;
53525;SDS011;40551;50.478;19.378;2023-08-06T12:28:15;2.70;;;1.10;;
53525;SDS011;40551;50.478;19.378;2023-08-06T12:30:49;2.40;;;1.20;;
53525;SDS011;40551;50.478;19.378;2023-08-06T12:33:24;3.40;;;1.10;;
53525;SDS011;40551;50.478;19.378;2023-08-06T12:35:55;3.20;;;0.90;;
53525;SDS011;40551;50.478;19.378;2023-08-06T12:38:28;3.60;;;1.10;;
53525;SDS011;40551;50.478;19.378;2023-08-06T12:41:02;5.90;;;1.00;;
53525;SDS011;40551;50.478;19.378;2023-08-06T12:43:34;2.40;;;0.90;;
53525;SDS011;40551;50.478;19.378;2023-08-06T12:46:06;2.60;;;0.90;;
53525;SDS011;40551;50.478;19.378;2023-08-06T12:48:37;2.30;;;0.90;;
53525;SDS011;40551;50.478;19.378;2023-08-06T12:51:09;1.10;;;0.70;;
53525;SDS011;40551;50.478;19.378;2023-08-06T12:53:40;1.20;;;0.90;;
53525;SDS011;40551;50.478;19.378;2023-08-06T12:56:12;2.30;;;1.00;;
53525;SDS011;40551;50.478;19.378;2023-08-06T12:58:44;2.80;;;0.90;;
53525;SDS011;40551;50.478;19.378;2023-08-06T13:01:15;2.70;;;1.10;;
53525;SDS011;40551;50.478;19.378;2023-08-06T13:03:47;3.10;;;1.00;;
53525;SDS011;40551;50.478;19.378;2023-08-06T13:06:19;3.10;;;1.30;;
53525;SDS011;40551;50.478;19.378;2023-08-06T13:08:50;3.80;;;1.10;;
53525;SDS011;40551;50.478;19.378;2023-08-06T13:11:22;2.50;;;1.10;;
53525;SDS011;40551;50.478;19.378;2023-08-06T13:13:54;3.40;;;1.00;;
53525;SDS011;40551;50.478;19.378;2023-08-06T13:16:26;1.80;;;1.00;;
53525;SDS011;40551;50.478;19.378;2023-08-06T13:18:58;1.60;;;1.00;;
53525;SDS011;40551;50.478;19.378;2023-08-06T13:21:33;1.70;;;0.80;;
53525;SDS011;40551;50.478;19.378;2023-08-06T13:24:05;3.00;;;0.90;;
53525;SDS011;40551;50.478;19.378;2023-08-06T13:26:38;0.80;;;0.80;;
53525;SDS011;40551;50.478;19.378;2023-08-06T13:29:10;2.50;;;1.00;;
53525;SDS011;40551;50.478;19.378;2023-08-06T13:31:42;2.70;;;0.90;;
53525;SDS011;40551;50.478;19.378;2023-08-06T13:34:14;1.40;;;0.90;;
53525;SDS011;40551;50.478;19.378;2023-08-06T13:36:46;1.80;;;0.90;;
53525;SDS011;40551;50.478;19.378;2023-08-06T13:39:19;2.40;;;1.10;;
53525;SDS011;40551;50.478;19.378;2023-08-06T13:41:50;2.00;;;0.70;;
53525;SDS011;40551;50.478;19.378;2023-08-06T13:44:22;2.20;;;0.90;;
53525;SDS011;40551;50.478;19.378;2023-08-06T13:46:53;4.40;;;1.20;;
53525;SDS011;40551;50.478;19.378;2023-08-06T13:49:25;2.60;;;1.10;;
53525;SDS011;40551;50.478;19.378;2023-08-06T13:51:57;1.30;;;0.90;;
53525;SDS011;40551;50.478;19.378;2023-08-06T13:54:47;2.70;;;1.00;;
53525;SDS011;40551;50.478;19.378;2023-08-06T13:57:19;2.30;;;1.00;;
53525;SDS011;40551;50.478;19.378;2023-08-06T13:59:50;1.90;;;1.00;;
53525;SDS011;40551;50.478;19.378;2023-08-06T14:02:22;2.30;;;1.00;;
53525;SDS011;40551;50.478;19.378;2023-08-06T14:04:54;2.50;;;1.40;;
53525;SDS011;40551;50.478;19.378;2023-08-06T14:07:26;6.00;;;1.00;;
53525;SDS011;40551;50.478;19.378;2023-08-06T14:09:57;4.80;;;1.00;;
53525;SDS011;40551;50.478;19.378;2023-08-06T14:12:29;6.50;;;1.30;;
53525;SDS011;40551;50.478;19.378;2023-08-06T14:15:01;5.20;;;1.30;;
53525;SDS011;40551;50.478;19.378;2023-08-06T14:17:33;4.90;;;1.60;;
53525;SDS011;40551;50.478;19.378;2023-08-06T14:20:06;5.80;;;1.70;;
53525;SDS011;40551;50.478;19.378;2023-08-06T14:22:41;6.10;;;2.20;;
53525;SDS011;40551;50.478;19.378;2023-08-06T14:25:12;4.60;;;1.60;;
53525;SDS011;40551;50.478;19.378;2023-08-06T14:27:44;4.70;;;1.80;;
53525;SDS011;40551;50.478;19.378;2023-08-06T14:30:15;6.70;;;1.60;;
53525;SDS011;40551;50.478;19.378;2023-08-06T14:32:47;5.40;;;1.70;;
53525;SDS011;40551;50.478;19.378;2023-08-06T14:35:19;4.80;;;1.70;;
53525;SDS011;40551;50.478;19.378;2023-08-06T14:37:50;3.60;;;1.40;;
53525;SDS011;40551;50.478;19.378;2023-08-06T14:40:22;6.30;;;1.60;;
53525;SDS011;40551;50.478;19.378;2023-08-06T14:42:57;6.30;;;1.60;;
53525;SDS011;40551;50.478;19.378;2023-08-06T14:45:29;7.10;;;1.50;;
53525;SDS011;40551;50.478;19.378;2023-08-06T14:48:01;5.40;;;1.70;;
53525;SDS011;40551;50.478;19.378;2023-08-06T14:50:33;6.00;;;1.30;;
53525;SDS011;40551;50.478;19.378;2023-08-06T14:53:04;4.60;;;1.60;;
53525;SDS011;40551;50.478;19.378;2023-08-06T14:55:37;2.70;;;1.50;;
53525;SDS011;40551;50.478;19.378;2023-08-06T14:58:10;6.60;;;1.50;;
53525;SDS011;40551;50.478;19.378;2023-08-06T15:00:42;5.70;;;1.60;;
53525;SDS011;40551;50.478;19.378;2023-08-06T15:03:14;2.60;;;1.30;;
53525;SDS011;40551;50.478;19.378;2023-08-06T15:05:48;3.00;;;1.20;;